Time;durP1;ratioP1;P1;durP2;ratioP2;P2;SDS_P1;SDS_P2;PMS_P1;PMS_P2;Temp;Humidity;BMP_temperature;BMP_pressure;BME280_temperature;BME280_humidity;BME280_pressure;Samples;Min_cycle;Max_cycle;Signal;HPM_P1;HPM_P2
2022/04/03 00:01:04;;;;;;;;;;;;;;;;;;4955849;28;20492;-57
2022/04/03 00:03:32;;;;;;;;;;;;;;;;;;4955254;28;19934;-59
2022/04/03 00:06:00;;;;;;;;;;;;;;;;;;4956438;28;20421;-59
2022/04/03 00:08:27;;;;;;;;;;;;;;;;;;4922034;28;19962;-58
2022/04/03 00:10:55;;;;;;;;;;;;;;;;;;4925392;28;21963;-59
2022/04/03 00:13:20;;;;;;;;;;;;;;;;;;4921170;28;19923;-58
2022/04/03 00:15:48;;;;;;;;;;;;;;;;;;4927668;28;20431;-58
2022/04/03 00:18:16;;;;;;;;;;;;;;;;;;4925310;28;19929;-58
2022/04/03 00:20:41;;;;;;;;;;;;;;;;;;4956302;28;19957;-59
2022/04/03 00:23:09;;;;;;;;;;;;;;;;;;4955639;28;20053;-59
2022/04/03 00:25:34;;;;;;;;;;;;;;;;;;4959528;28;19918;-59
2022/04/03 00:28:02;;;;;;;;;;;;;;;;;;4926406;28;19925;-57
2022/04/03 00:30:27;;;;;;;;;;;;;;;;;;4958265;28;20357;-59
2022/04/03 00:32:55;;;;;;;;;;;;;;;;;;4927621;28;20472;-58
2022/04/03 00:35:20;;;;;;;;;;;;;;;;;;4922728;28;20036;-58
2022/04/03 00:37:48;;;;;;;;;;;;;;;;;;4922725;28;20305;-59
2022/04/03 00:40:17;;;;;;;;;;;;;;;;;;4927590;28;20016;-59
2022/04/03 00:42:43;;;;;;;;;;;;;;;;;;4957259;28;20005;-59
2022/04/03 00:45:10;;;;;;;;;;;;;;;;;;4957930;28;19932;-59
2022/04/03 00:47:43;;;;;;;;;;;;;;;;;;4925364;28;21511;-59
2022/04/03 00:50:08;;;;;;;;;;;;;;;;;;4920287;28;19942;-57
2022/04/03 00:52:34;;;;;;;;;;;;;;;;;;4921325;28;20058;-59
2022/04/03 00:54:59;;;;;;;;;;;;;;;;;;4925687;28;20044;-60
2022/04/03 00:57:26;;;;;;;;;;;;;;;;;;4924986;28;19918;-58
2022/04/03 00:59:56;;;;;;;;;;;;;;;;;;4926605;28;20037;-60
2022/04/03 01:02:21;;;;;;;;;;;;;;;;;;4925386;28;19926;-60
2022/04/03 01:04:49;;;;;;;;;;;;;;;;;;4923501;28;20698;-60
2022/04/03 01:07:15;;;;;;;;;;;;;;;;;;4918487;28;19922;-57
2022/04/03 01:09:45;;;;;;;;;;;;;;;;;;4925682;28;23062;-60
2022/04/03 01:12:13;;;;;;;;;;;;;;;;;;4957010;28;19958;-59
2022/04/03 01:14:38;;;;;;;;;;;;;;;;;;4939709;28;19991;-59
2022/04/03 01:17:07;;;;;;;;;;;;;;;;;;4921158;28;20024;-59
2022/04/03 01:19:35;;;;;;;;;;;;;;;;;;4923625;28;19927;-59
2022/04/03 01:22:00;;;;;;;;;;;;;;;;;;4956609;28;19922;-60
2022/04/03 01:24:30;;;;;;;;;;;;;;;;;;4921276;28;20045;-59
2022/04/03 01:26:55;;;;;;;;;;;;;;;;;;4956328;28;19926;-60
2022/04/03 01:29:23;;;;;;;;;;;;;;;;;;4925691;28;19954;-59
2022/04/03 01:31:49;;;;;;;;;;;;;;;;;;4919107;28;19919;-59
2022/04/03 01:34:17;;;;;;;;;;;;;;;;;;4921823;28;20617;-59
2022/04/03 01:36:42;;;;;;;;;;;;;;;;;;4924877;28;19918;-59
2022/04/03 01:39:10;;;;;;;;;;;;;;;;;;4922579;28;21053;-59
2022/04/03 01:41:35;;;;;;;;;;;;;;;;;;4924341;28;19933;-58
2022/04/03 01:44:00;;;;;;;;;;;;;;;;;;4923736;28;19926;-58
2022/04/03 01:46:28;;;;;;;;;;;;;;;;;;4924393;28;19923;-59
2022/04/03 01:48:53;;;;;;;;;;;;;;;;;;4922843;28;20010;-59
2022/04/03 01:51:19;;;;;;;;;;;;;;;;;;4954255;28;20500;-59
2022/04/03 01:53:44;;;;;;;;;;;;;;;;;;4918945;28;19923;-59
2022/04/03 01:56:09;;;;;;;;;;;;;;;;;;4954394;28;19923;-59
2022/04/03 01:58:37;;;;;;;;;;;;;;;;;;4938255;28;19922;-59
2022/04/03 02:01:05;;;;;;;;;;;;;;;;;;4924012;28;20408;-59
2022/04/03 02:03:32;;;;;;;;;;;;;;;;;;4922491;28;19918;-59
2022/04/03 02:05:58;;;;;;;;;;;;;;;;;;4924482;28;19918;-57
2022/04/03 02:08:25;;;;;;;;;;;;;;;;;;4953054;28;20594;-58
2022/04/03 02:10:53;;;;;;;;;;;;;;;;;;4925137;28;19954;-59
2022/04/03 02:13:18;;;;;;;;;;;;;;;;;;4921695;28;19966;-58
2022/04/03 02:15:46;;;;;;;;;;;;;;;;;;4922159;28;19936;-58
2022/04/03 02:18:12;;;;;;;;;;;;;;;;;;4953331;28;19926;-58
2022/04/03 02:20:38;;;;;;;;;;;;;;;;;;4951109;28;19973;-58
2022/04/03 02:23:08;;;;;;;;;;;;;;;;;;4923366;28;19927;-58
2022/04/03 02:25:33;;;;;;;;;;;;;;;;;;4927362;28;19922;-58
2022/04/03 02:28:01;;;;;;;;;;;;;;;;;;4952231;28;19931;-58
2022/04/03 02:30:26;;;;;;;;;;;;;;;;;;4957616;28;19930;-59
2022/04/03 02:32:52;;;;;;;;;;;;;;;;;;4958411;28;19969;-59
2022/04/03 02:35:17;;;;;;;;;;;;;;;;;;4944256;28;20915;-58
2022/04/03 02:37:43;;;;;;;;;;;;;;;;;;4927491;28;20085;-58
2022/04/03 02:40:08;;;;;;;;;;;;;;;;;;4958216;28;19988;-58
2022/04/03 02:42:33;;;;;;;;;;;;;;;;;;4924251;28;19923;-58
2022/04/03 02:44:59;;;;;;;;;;;;;;;;;;4958510;28;19922;-57
2022/04/03 02:47:26;;;;;;;;;;;;;;;;;;4926584;28;19977;-58
2022/04/03 02:49:54;;;;;;;;;;;;;;;;;;4927528;28;19926;-58
2022/04/03 02:52:19;;;;;;;;;;;;;;;;;;4927852;28;20586;-58
2022/04/03 02:54:47;;;;;;;;;;;;;;;;;;4929291;28;20350;-60
2022/04/03 02:57:15;;;;;;;;;;;;;;;;;;4960524;28;19923;-58
2022/04/03 02:59:40;;;;;;;;;;;;;;;;;;4958321;28;19930;-58
2022/04/03 03:02:10;;;;;;;;;;;;;;;;;;4927376;28;19922;-58
2022/04/03 03:04:36;;;;;;;;;;;;;;;;;;4928985;28;19914;-58
2022/04/03 03:07:04;;;;;;;;;;;;;;;;;;4940926;28;19990;-58
2022/04/03 03:09:29;;;;;;;;;;;;;;;;;;4931953;28;19937;-58
2022/04/03 03:11:55;;;;;;;;;;;;;;;;;;4926884;28;19965;-57
2022/04/03 03:14:21;;;;;;;;;;;;;;;;;;4928638;28;19922;-57
2022/04/03 03:16:46;;;;;;;;;;;;;;;;;;4958785;28;19922;-56
2022/04/03 03:19:12;;;;;;;;;;;;;;;;;;4928645;28;20017;-56
2022/04/03 03:21:39;;;;;;;;;;;;;;;;;;4960131;28;19919;-55
2022/04/03 03:24:04;;;;;;;;;;;;;;;;;;4926517;28;19953;-55
2022/04/03 03:26:30;;;;;;;;;;;;;;;;;;4961533;28;19926;-55
2022/04/03 03:28:56;;;;;;;;;;;;;;;;;;4924051;28;19969;-57
2022/04/03 03:31:23;;;;;;;;;;;;;;;;;;4929462;28;20767;-56
2022/04/03 03:33:51;;;;;;;;;;;;;;;;;;4928092;28;19928;-56
2022/04/03 03:36:16;;;;;;;;;;;;;;;;;;4938556;28;20025;-56
2022/04/03 03:38:42;;;;;;;;;;;;;;;;;;4923504;28;19929;-55
2022/04/03 03:41:07;;;;;;;;;;;;;;;;;;4925955;28;19919;-55
2022/04/03 03:43:33;;;;;;;;;;;;;;;;;;4927162;28;20531;-55
2022/04/03 03:46:00;;;;;;;;;;;;;;;;;;4929729;28;19922;-54
2022/04/03 03:48:26;;;;;;;;;;;;;;;;;;4922914;28;19973;-55
2022/04/03 03:50:52;;;;;;;;;;;;;;;;;;4927591;28;19966;-57
2022/04/03 03:53:17;;;;;;;;;;;;;;;;;;4928959;28;20020;-55
2022/04/03 03:55:45;;;;;;;;;;;;;;;;;;4938856;28;20045;-55
2022/04/03 03:58:13;;;;;;;;;;;;;;;;;;4956495;28;19923;-56
2022/04/03 04:00:43;;;;;;;;;;;;;;;;;;4928109;28;20209;-56
2022/04/03 04:03:08;;;;;;;;;;;;;;;;;;4925541;28;19918;-55
2022/04/03 04:05:36;;;;;;;;;;;;;;;;;;4927113;28;19933;-57
2022/04/03 04:08:04;;;;;;;;;;;;;;;;;;4924476;28;19937;-56
2022/04/03 04:10:32;;;;;;;;;;;;;;;;;;4926889;28;19922;-55
2022/04/03 04:12:57;;;;;;;;;;;;;;;;;;4922559;28;20060;-56
2022/04/03 04:15:22;;;;;;;;;;;;;;;;;;4958235;28;20729;-56
2022/04/03 04:17:50;;;;;;;;;;;;;;;;;;4924215;28;20196;-56
2022/04/03 04:20:17;;;;;;;;;;;;;;;;;;4926099;28;20120;-56
2022/04/03 04:22:45;;;;;;;;;;;;;;;;;;4926098;28;21898;-56
2022/04/03 04:25:11;;;;;;;;;;;;;;;;;;4954827;28;19934;-57
2022/04/03 04:27:37;;;;;;;;;;;;;;;;;;4923093;28;19922;-57
2022/04/03 04:30:04;;;;;;;;;;;;;;;;;;4926917;28;19923;-56
2022/04/03 04:32:29;;;;;;;;;;;;;;;;;;4955628;28;19925;-56
2022/04/03 04:35:00;;;;;;;;;;;;;;;;;;4926149;28;20667;-56
2022/04/03 04:37:34;;;;;;;;;;;;;;;;;;4925596;28;19922;-56
2022/04/03 04:40:05;;;;;;;;;;;;;;;;;;4955738;28;19922;-56
2022/04/03 04:42:30;;;;;;;;;;;;;;;;;;4939666;28;21403;-55
2022/04/03 04:44:58;;;;;;;;;;;;;;;;;;4923877;28;19928;-56
2022/04/03 04:47:26;;;;;;;;;;;;;;;;;;4921603;28;22059;-53
2022/04/03 04:49:53;;;;;;;;;;;;;;;;;;4923147;28;21869;-55
2022/04/03 04:52:23;;;;;;;;;;;;;;;;;;4922157;28;19922;-56
2022/04/03 04:54:50;;;;;;;;;;;;;;;;;;4925553;28;19961;-56
2022/04/03 04:57:16;;;;;;;;;;;;;;;;;;4924345;28;19925;-56
2022/04/03 04:59:42;;;;;;;;;;;;;;;;;;4923121;28;19938;-57
2022/04/03 05:02:09;;;;;;;;;;;;;;;;;;4924320;28;19961;-55
2022/04/03 05:04:40;;;;;;;;;;;;;;;;;;4958284;28;20366;-56
2022/04/03 05:07:05;;;;;;;;;;;;;;;;;;4925827;28;20501;-56
2022/04/03 05:09:33;;;;;;;;;;;;;;;;;;4954415;28;19938;-56
2022/04/03 05:11:58;;;;;;;;;;;;;;;;;;4924276;28;19922;-57
2022/04/03 05:14:26;;;;;;;;;;;;;;;;;;4952066;28;19923;-56
2022/04/03 05:16:51;;;;;;;;;;;;;;;;;;4954469;28;19923;-56
2022/04/03 05:19:19;;;;;;;;;;;;;;;;;;4919415;28;20355;-56
2022/04/03 05:21:50;;;;;;;;;;;;;;;;;;4921960;28;19955;-57
2022/04/03 05:24:17;;;;;;;;;;;;;;;;;;4939408;28;19930;-56
2022/04/03 05:26:45;;;;;;;;;;;;;;;;;;4929044;28;19963;-56
2022/04/03 05:29:15;;;;;;;;;;;;;;;;;;4960815;28;19930;-55
2022/04/03 05:31:41;;;;;;;;;;;;;;;;;;4959800;28;20368;-56
2022/04/03 05:34:08;;;;;;;;;;;;;;;;;;4928382;28;19929;-58
2022/04/03 05:36:36;;;;;;;;;;;;;;;;;;4924319;28;19922;-57
2022/04/03 05:39:04;;;;;;;;;;;;;;;;;;4920638;28;19933;-58
2022/04/03 05:41:32;;;;;;;;;;;;;;;;;;4925295;28;19918;-56
2022/04/03 05:44:00;;;;;;;;;;;;;;;;;;4961821;28;19919;-57
2022/04/03 05:46:27;;;;;;;;;;;;;;;;;;4962510;28;19922;-57
2022/04/03 05:48:53;;;;;;;;;;;;;;;;;;4928414;28;19976;-57
2022/04/03 05:51:21;;;;;;;;;;;;;;;;;;4927269;28;19942;-58
2022/04/03 05:53:46;;;;;;;;;;;;;;;;;;4942489;28;20890;-57
2022/04/03 05:56:12;;;;;;;;;;;;;;;;;;4927655;28;19957;-57
2022/04/03 05:58:38;;;;;;;;;;;;;;;;;;4927453;28;19922;-58
2022/04/03 06:01:03;;;;;;;;;;;;;;;;;;4926410;28;20033;-57
2022/04/03 06:03:31;;;;;;;;;;;;;;;;;;4931946;28;19998;-57
2022/04/03 06:05:56;;;;;;;;;;;;;;;;;;4947659;28;19922;-57
2022/04/03 06:08:22;;;;;;;;;;;;;;;;;;4932165;28;21777;-59
2022/04/03 06:10:47;;;;;;;;;;;;;;;;;;4929711;28;20559;-57
2022/04/03 06:13:13;;;;;;;;;;;;;;;;;;4932001;28;19918;-57
2022/04/03 06:15:38;;;;;;;;;;;;;;;;;;4927911;28;20021;-57
2022/04/03 06:18:06;;;;;;;;;;;;;;;;;;4959723;28;19922;-55
2022/04/03 06:20:34;;;;;;;;;;;;;;;;;;4930220;28;19962;-55
2022/04/03 06:23:02;;;;;;;;;;;;;;;;;;4928817;28;19922;-56
2022/04/03 06:25:28;;;;;;;;;;;;;;;;;;4949286;28;19923;-56
2022/04/03 06:27:53;;;;;;;;;;;;;;;;;;4933837;28;19930;-56
2022/04/03 06:30:21;;;;;;;;;;;;;;;;;;4933018;28;19922;-55
2022/04/03 06:32:49;;;;;;;;;;;;;;;;;;4932842;28;19918;-57
2022/04/03 06:35:19;;;;;;;;;;;;;;;;;;4929856;28;19922;-56
2022/04/03 06:37:47;;;;;;;;;;;;;;;;;;4927655;28;19922;-57
2022/04/03 06:40:13;;;;;;;;;;;;;;;;;;4931608;28;21816;-57
2022/04/03 06:42:39;;;;;;;;;;;;;;;;;;4928664;28;20876;-57
2022/04/03 06:45:06;;;;;;;;;;;;;;;;;;4935063;28;20013;-56
2022/04/03 06:47:33;;;;;;;;;;;;;;;;;;4924477;28;20405;-54
2022/04/03 06:50:02;;;;;;;;;;;;;;;;;;4928356;28;19929;-54
2022/04/03 06:52:30;;;;;;;;;;;;;;;;;;4958376;28;19970;-55
2022/04/03 06:54:58;;;;;;;;;;;;;;;;;;4959124;28;20689;-57
2022/04/03 06:57:23;;;;;;;;;;;;;;;;;;4927347;28;19923;-54
2022/04/03 06:59:49;;;;;;;;;;;;;;;;;;4928491;28;22300;-55
2022/04/03 07:02:17;;;;;;;;;;;;;;;;;;4928671;28;19918;-56
2022/04/03 07:04:47;;;;;;;;;;;;;;;;;;4926988;28;19923;-56
2022/04/03 07:07:15;;;;;;;;;;;;;;;;;;4928262;28;19918;-57
2022/04/03 07:09:43;;;;;;;;;;;;;;;;;;4959330;28;19949;-57
2022/04/03 07:12:11;;;;;;;;;;;;;;;;;;4930538;28;20871;-57
2022/04/03 07:14:37;;;;;;;;;;;;;;;;;;4928345;28;19922;-57
2022/04/03 07:17:02;;;;;;;;;;;;;;;;;;4959165;28;19950;-56
2022/04/03 07:19:34;;;;;;;;;;;;;;;;;;4960315;28;19926;-57
2022/04/03 07:21:59;;;;;;;;;;;;;;;;;;4960401;28;19949;-57
2022/04/03 07:24:25;;;;;;;;;;;;;;;;;;4958190;28;21741;-57
2022/04/03 07:26:50;;;;;;;;;;;;;;;;;;4928782;28;20464;-57
2022/04/03 07:29:16;;;;;;;;;;;;;;;;;;4925209;28;19937;-57
2022/04/03 07:31:43;;;;;;;;;;;;;;;;;;4926060;28;20519;-57
2022/04/03 07:34:14;;;;;;;;;;;;;;;;;;4928288;28;19923;-57
2022/04/03 07:36:39;;;;;;;;;;;;;;;;;;4957045;28;20850;-57
2022/04/03 07:39:05;;;;;;;;;;;;;;;;;;4958500;28;20047;-57
2022/04/03 07:41:30;;;;;;;;;;;;;;;;;;4939731;28;19922;-57
2022/04/03 07:43:59;;;;;;;;;;;;;;;;;;4926552;28;19922;-57
2022/04/03 07:46:26;;;;;;;;;;;;;;;;;;4927568;28;19919;-58
2022/04/03 07:48:54;;;;;;;;;;;;;;;;;;4925189;28;19927;-58
2022/04/03 07:51:23;;;;;;;;;;;;;;;;;;4926170;28;19923;-59
2022/04/03 07:53:49;;;;;;;;;;;;;;;;;;4957897;28;19919;-59
2022/04/03 07:56:14;;;;;;;;;;;;;;;;;;4927542;28;19933;-60
2022/04/03 07:58:39;;;;;;;;;;;;;;;;;;4959087;28;19938;-60
2022/04/03 08:01:04;;;;;;;;;;;;;;;;;;4957394;28;19930;-60
2022/04/03 08:03:32;;;;;;;;;;;;;;;;;;4956777;28;19930;-60
2022/04/03 08:05:58;;;;;;;;;;;;;;;;;;4939845;28;22400;-62
2022/04/03 08:08:25;;;;;;;;;;;;;;;;;;4925551;28;19930;-60
2022/04/03 08:10:50;;;;;;;;;;;;;;;;;;4957181;28;19929;-60
2022/04/03 08:13:16;;;;;;;;;;;;;;;;;;4927316;28;19918;-60
2022/04/03 08:15:41;;;;;;;;;;;;;;;;;;4927140;28;19966;-60
2022/04/03 08:18:06;;;;;;;;;;;;;;;;;;4955250;28;20412;-60
2022/04/03 08:20:32;;;;;;;;;;;;;;;;;;4927527;28;20739;-60
2022/04/03 08:23:01;;;;;;;;;;;;;;;;;;4926622;28;19927;-60
2022/04/03 08:25:26;;;;;;;;;;;;;;;;;;4926433;28;19953;-60
2022/04/03 08:27:56;;;;;;;;;;;;;;;;;;4927307;28;19957;-60
2022/04/03 08:30:22;;;;;;;;;;;;;;;;;;4932124;28;19981;-60
2022/04/03 08:32:48;;;;;;;;;;;;;;;;;;4943513;28;19918;-60
2022/04/03 08:35:15;;;;;;;;;;;;;;;;;;4955992;28;19930;-60
2022/04/03 08:37:40;;;;;;;;;;;;;;;;;;4957688;28;19930;-59
2022/04/03 08:40:06;;;;;;;;;;;;;;;;;;4958464;28;19922;-60
2022/04/03 08:42:33;;;;;;;;;;;;;;;;;;4957879;28;20068;-60
2022/04/03 08:44:59;;;;;;;;;;;;;;;;;;4956566;28;20699;-59
2022/04/03 08:47:25;;;;;;;;;;;;;;;;;;4926271;28;20006;-59
2022/04/03 08:49:50;;;;;;;;;;;;;;;;;;4939023;28;19930;-58
2022/04/03 08:52:20;;;;;;;;;;;;;;;;;;4925901;28;19961;-62
2022/04/03 08:54:45;;;;;;;;;;;;;;;;;;4927341;28;19918;-60
2022/04/03 08:57:13;;;;;;;;;;;;;;;;;;4932028;28;20017;-61
2022/04/03 08:59:38;;;;;;;;;;;;;;;;;;4962961;28;20267;-60
2022/04/03 09:02:04;;;;;;;;;;;;;;;;;;4931338;28;20309;-60
2022/04/03 09:04:31;;;;;;;;;;;;;;;;;;4932333;28;20013;-59
2022/04/03 09:06:59;;;;;;;;;;;;;;;;;;4932883;28;19923;-60
2022/04/03 09:09:25;;;;;;;;;;;;;;;;;;4927844;28;20105;-59
2022/04/03 09:11:51;;;;;;;;;;;;;;;;;;4961643;28;19923;-59
2022/04/03 09:14:16;;;;;;;;;;;;;;;;;;4930710;28;20472;-60
2022/04/03 09:16:46;;;;;;;;;;;;;;;;;;4932199;28;19934;-60
2022/04/03 09:19:11;;;;;;;;;;;;;;;;;;4929873;28;20037;-61
2022/04/03 09:21:39;;;;;;;;;;;;;;;;;;4929010;28;19928;-60
2022/04/03 09:24:07;;;;;;;;;;;;;;;;;;4957653;28;19922;-60
2022/04/03 09:26:33;;;;;;;;;;;;;;;;;;4957515;28;19991;-60
2022/04/03 09:28:59;;;;;;;;;;;;;;;;;;4926796;28;19977;-61
2022/04/03 09:31:30;;;;;;;;;;;;;;;;;;4927594;28;19922;-60
2022/04/03 09:33:57;;;;;;;;;;;;;;;;;;4927824;28;19919;-59
2022/04/03 09:36:25;;;;;;;;;;;;;;;;;;4923774;28;19985;-60
2022/04/03 09:38:53;;;;;;;;;;;;;;;;;;4925905;28;19925;-60
2022/04/03 09:41:21;;;;;;;;;;;;;;;;;;4937081;28;19926;-59
2022/04/03 09:43:46;;;;;;;;;;;;;;;;;;4955919;28;19965;-59
2022/04/03 09:46:12;;;;;;;;;;;;;;;;;;4926461;28;19922;-60
2022/04/03 09:48:39;;;;;;;;;;;;;;;;;;4927056;28;19926;-59
2022/04/03 09:51:05;;;;;;;;;;;;;;;;;;4958617;28;19965;-60
2022/04/03 09:53:30;;;;;;;;;;;;;;;;;;4958237;28;19923;-60
2022/04/03 09:55:55;;;;;;;;;;;;;;;;;;4956136;28;20270;-59
2022/04/03 09:58:22;;;;;;;;;;;;;;;;;;4925090;28;20230;-59
2022/04/03 10:00:47;;;;;;;;;;;;;;;;;;4923330;28;20000;-60
2022/04/03 10:03:13;;;;;;;;;;;;;;;;;;4926178;28;19922;-60
2022/04/03 10:05:38;;;;;;;;;;;;;;;;;;4926449;28;19942;-59
2022/04/03 10:08:04;;;;;;;;;;;;;;;;;;4926330;28;19971;-60
2022/04/03 10:10:29;;;;;;;;;;;;;;;;;;4928889;28;19918;-60
2022/04/03 10:12:57;;;;;;;;;;;;;;;;;;4924495;28;19922;-59
2022/04/03 10:15:23;;;;;;;;;;;;;;;;;;4927372;28;19923;-59
2022/04/03 10:17:48;;;;;;;;;;;;;;;;;;4955936;28;19933;-59
2022/04/03 10:20:16;;;;;;;;;;;;;;;;;;4925149;28;20457;-59
2022/04/03 10:22:42;;;;;;;;;;;;;;;;;;4924574;28;20008;-59
2022/04/03 10:25:11;;;;;;;;;;;;;;;;;;4957171;28;19922;-60
2022/04/03 10:27:39;;;;;;;;;;;;;;;;;;4929253;28;19933;-59
2022/04/03 10:30:04;;;;;;;;;;;;;;;;;;4925087;28;19965;-59
2022/04/03 10:32:30;;;;;;;;;;;;;;;;;;4954056;28;19970;-59
2022/04/03 10:34:56;;;;;;;;;;;;;;;;;;4923794;28;20006;-59
2022/04/03 10:37:21;;;;;;;;;;;;;;;;;;4921733;28;19922;-60
2022/04/03 10:39:46;;;;;;;;;;;;;;;;;;4924074;28;20818;-60
2022/04/03 10:42:12;;;;;;;;;;;;;;;;;;4926678;28;20412;-59
2022/04/03 10:44:42;;;;;;;;;;;;;;;;;;4952952;28;21523;-59
2022/04/03 10:47:08;;;;;;;;;;;;;;;;;;4935385;28;19965;-58
2022/04/03 10:49:35;;;;;;;;;;;;;;;;;;4925693;28;21759;-58
2022/04/03 10:52:03;;;;;;;;;;;;;;;;;;4926709;28;19923;-58
2022/04/03 10:54:31;;;;;;;;;;;;;;;;;;4924971;28;19933;-58
2022/04/03 10:56:59;;;;;;;;;;;;;;;;;;4940779;28;20533;-58
2022/04/03 10:59:26;;;;;;;;;;;;;;;;;;4958642;28;20736;-59
2022/04/03 11:01:51;;;;;;;;;;;;;;;;;;4926662;28;19922;-59
2022/04/03 11:04:16;;;;;;;;;;;;;;;;;;4924444;28;19961;-60
2022/04/03 11:06:51;;;;;;;;;;;;;;;;;;4927070;28;19981;-60
2022/04/03 11:09:16;;;;;;;;;;;;;;;;;;4921665;28;20024;-59
2022/04/03 11:11:44;;;;;;;;;;;;;;;;;;4942934;28;20412;-59
2022/04/03 11:14:09;;;;;;;;;;;;;;;;;;4957013;28;19970;-59
2022/04/03 11:16:35;;;;;;;;;;;;;;;;;;4926224;28;19922;-61
2022/04/03 11:19:00;;;;;;;;;;;;;;;;;;4958596;28;20000;-59
2022/04/03 11:21:26;;;;;;;;;;;;;;;;;;4927330;28;19933;-60
2022/04/03 11:23:54;;;;;;;;;;;;;;;;;;4928587;28;19940;-59
2022/04/03 11:26:20;;;;;;;;;;;;;;;;;;4954686;28;19922;-59
2022/04/03 11:28:47;;;;;;;;;;;;;;;;;;4926237;28;19930;-59
2022/04/03 11:31:13;;;;;;;;;;;;;;;;;;4922987;28;19973;-60
2022/04/03 11:33:38;;;;;;;;;;;;;;;;;;4942762;28;19922;-58
2022/04/03 11:36:06;;;;;;;;;;;;;;;;;;4924642;28;19937;-60
2022/04/03 11:38:34;;;;;;;;;;;;;;;;;;4929919;28;20294;-59
2022/04/03 11:41:02;;;;;;;;;;;;;;;;;;4927267;28;19922;-59
2022/04/03 11:43:27;;;;;;;;;;;;;;;;;;4958401;28;20856;-58
2022/04/03 11:45:54;;;;;;;;;;;;;;;;;;4927945;28;19929;-59
2022/04/03 11:48:20;;;;;;;;;;;;;;;;;;4928501;28;19981;-59
2022/04/03 11:50:49;;;;;;;;;;;;;;;;;;4923602;28;19926;-61
2022/04/03 11:53:18;;;;;;;;;;;;;;;;;;4957099;28;20260;-59
2022/04/03 11:55:43;;;;;;;;;;;;;;;;;;4927678;28;21014;-59
2022/04/03 11:58:08;;;;;;;;;;;;;;;;;;4927372;28;19918;-58
2022/04/03 12:00:34;;;;;;;;;;;;;;;;;;4925711;28;21229;-59
2022/04/03 12:03:03;;;;;;;;;;;;;;;;;;4928611;28;19942;-59
2022/04/03 12:05:29;;;;;;;;;;;;;;;;;;4926699;28;20401;-60
2022/04/03 12:07:56;;;;;;;;;;;;;;;;;;4955714;28;19919;-60
2022/04/03 12:10:22;;;;;;;;;;;;;;;;;;4926568;28;19934;-61
2022/04/03 12:12:47;;;;;;;;;;;;;;;;;;4937102;28;19929;-58
2022/04/03 12:15:16;;;;;;;;;;;;;;;;;;4926168;28;19922;-60
2022/04/03 12:17:43;;;;;;;;;;;;;;;;;;4927453;28;20804;-60
2022/04/03 12:20:08;;;;;;;;;;;;;;;;;;4935878;28;20354;-60
2022/04/03 12:22:33;;;;;;;;;;;;;;;;;;4959240;28;19938;-60
2022/04/03 12:24:58;;;;;;;;;;;;;;;;;;4959686;28;20283;-60
2022/04/03 12:27:25;;;;;;;;;;;;;;;;;;4959183;28;20348;-60
2022/04/03 12:29:53;;;;;;;;;;;;;;;;;;4948456;28;20310;-60
2022/04/03 12:32:22;;;;;;;;;;;;;;;;;;4932145;28;19918;-59
2022/04/03 12:34:50;;;;;;;;;;;;;;;;;;4933791;28;19918;-59
2022/04/03 12:37:15;;;;;;;;;;;;;;;;;;4965690;28;19926;-61
2022/04/03 12:39:40;;;;;;;;;;;;;;;;;;4933014;28;19936;-59
2022/04/03 12:42:05;;;;;;;;;;;;;;;;;;4965047;28;20457;-60
2022/04/03 12:44:37;;;;;;;;;;;;;;;;;;4933202;28;20509;-60
2022/04/03 12:47:03;;;;;;;;;;;;;;;;;;4921328;28;20013;-59
2022/04/03 12:49:28;;;;;;;;;;;;;;;;;;4926891;28;19965;-59
2022/04/03 12:51:56;;;;;;;;;;;;;;;;;;4956473;28;19923;-59
2022/04/03 12:54:23;;;;;;;;;;;;;;;;;;4927017;28;19961;-59
2022/04/03 12:59:36;;;;;;;;;;;;;;;;;;4925603;28;20697;-59
2022/04/03 13:02:02;;;;;;;;;;;;;;;;;;4931438;28;20558;-58
2022/04/03 13:04:29;;;;;;;;;;;;;;;;;;4929870;28;19958;-59
2022/04/03 13:06:54;;;;;;;;;;;;;;;;;;4955343;28;19926;-59
2022/04/03 13:09:19;;;;;;;;;;;;;;;;;;4958435;28;19922;-59
2022/04/03 13:11:46;;;;;;;;;;;;;;;;;;4927102;28;21860;-59
2022/04/03 13:14:14;;;;;;;;;;;;;;;;;;4925448;28;19922;-59
2022/04/03 13:16:41;;;;;;;;;;;;;;;;;;4944683;28;19954;-59
2022/04/03 13:19:09;;;;;;;;;;;;;;;;;;4927871;28;19922;-59
2022/04/03 13:21:39;;;;;;;;;;;;;;;;;;4959655;28;20040;-60
2022/04/03 13:24:07;;;;;;;;;;;;;;;;;;4954467;28;21066;-59
2022/04/03 13:26:32;;;;;;;;;;;;;;;;;;4956966;28;19918;-59
2022/04/03 13:28:57;;;;;;;;;;;;;;;;;;4922315;28;19969;-58
2022/04/03 13:31:25;;;;;;;;;;;;;;;;;;4928869;28;19962;-59
2022/04/03 13:33:58;;;;;;;;;;;;;;;;;;4924325;28;20301;-59
2022/04/03 13:36:25;;;;;;;;;;;;;;;;;;4928167;28;21194;-59
2022/04/03 13:38:51;;;;;;;;;;;;;;;;;;4927675;28;19931;-58
2022/04/03 13:41:16;;;;;;;;;;;;;;;;;;4928672;28;20651;-61
2022/04/03 13:43:42;;;;;;;;;;;;;;;;;;4928666;28;19961;-59
2022/04/03 13:46:07;;;;;;;;;;;;;;;;;;4942622;28;20671;-60
2022/04/03 13:48:37;;;;;;;;;;;;;;;;;;4927529;28;19965;-59
2022/04/03 13:51:04;;;;;;;;;;;;;;;;;;4923862;28;19926;-59
2022/04/03 13:53:30;;;;;;;;;;;;;;;;;;4956231;28;20294;-58
2022/04/03 13:55:56;;;;;;;;;;;;;;;;;;4924570;28;19981;-59
2022/04/03 13:58:22;;;;;;;;;;;;;;;;;;4922754;28;20469;-59
2022/04/03 14:00:47;;;;;;;;;;;;;;;;;;4957139;28;19978;-60
2022/04/03 14:03:13;;;;;;;;;;;;;;;;;;4929986;28;20374;-60
2022/04/03 14:05:40;;;;;;;;;;;;;;;;;;4932223;28;19950;-59
2022/04/03 14:08:07;;;;;;;;;;;;;;;;;;4963440;28;20053;-61
2022/04/03 14:10:32;;;;;;;;;;;;;;;;;;4933553;28;19953;-59
2022/04/03 14:12:57;;;;;;;;;;;;;;;;;;4962500;28;20352;-59
2022/04/03 14:15:25;;;;;;;;;;;;;;;;;;4931450;28;19918;-60
2022/04/03 14:17:51;;;;;;;;;;;;;;;;;;4933306;28;19927;-62
2022/04/03 14:20:19;;;;;;;;;;;;;;;;;;4932476;28;20704;-61
2022/04/03 14:22:44;;;;;;;;;;;;;;;;;;4963477;28;19918;-59
2022/04/03 14:25:10;;;;;;;;;;;;;;;;;;4933625;28;19925;-59
2022/04/03 14:27:38;;;;;;;;;;;;;;;;;;4934820;28;19922;-59
2022/04/03 14:30:04;;;;;;;;;;;;;;;;;;4936403;28;19922;-59
2022/04/03 14:32:34;;;;;;;;;;;;;;;;;;4967282;28;19918;-58
2022/04/03 14:34:59;;;;;;;;;;;;;;;;;;4951002;28;19958;-61
2022/04/03 14:37:25;;;;;;;;;;;;;;;;;;4935353;28;19924;-59
2022/04/03 14:39:50;;;;;;;;;;;;;;;;;;4967551;28;19958;-59
2022/04/03 14:42:15;;;;;;;;;;;;;;;;;;4951917;28;19977;-60
2022/04/03 14:44:41;;;;;;;;;;;;;;;;;;4936005;28;19918;-60
2022/04/03 14:47:06;;;;;;;;;;;;;;;;;;4937397;28;20093;-59
2022/04/03 14:49:34;;;;;;;;;;;;;;;;;;4936336;28;19926;-58
2022/04/03 14:52:04;;;;;;;;;;;;;;;;;;4936869;28;19923;-58
2022/04/03 14:54:32;;;;;;;;;;;;;;;;;;4937126;28;19934;-58
2022/04/03 14:56:57;;;;;;;;;;;;;;;;;;4936453;28;20009;-61
2022/04/03 14:59:22;;;;;;;;;;;;;;;;;;4934475;28;20013;-59
2022/04/03 15:01:50;;;;;;;;;;;;;;;;;;4966186;28;21379;-59
2022/04/03 15:04:15;;;;;;;;;;;;;;;;;;4935741;28;20012;-59
2022/04/03 15:06:41;;;;;;;;;;;;;;;;;;4965876;28;19945;-59
2022/04/03 15:09:08;;;;;;;;;;;;;;;;;;4935630;28;19926;-58
2022/04/03 15:11:34;;;;;;;;;;;;;;;;;;4967015;28;20398;-59
2022/04/03 15:14:02;;;;;;;;;;;;;;;;;;4935172;28;19926;-60
2022/04/03 15:16:30;;;;;;;;;;;;;;;;;;4965625;28;20425;-59
2022/04/03 15:18:58;;;;;;;;;;;;;;;;;;4936895;28;20465;-59
2022/04/03 15:21:23;;;;;;;;;;;;;;;;;;4934691;28;19974;-59
2022/04/03 15:23:49;;;;;;;;;;;;;;;;;;4934875;28;19915;-59
2022/04/03 15:26:14;;;;;;;;;;;;;;;;;;4933137;28;19930;-59
2022/04/03 15:28:42;;;;;;;;;;;;;;;;;;4965404;28;19926;-59
2022/04/03 15:31:07;;;;;;;;;;;;;;;;;;4965948;28;20752;-59
2022/04/03 15:33:33;;;;;;;;;;;;;;;;;;4935091;28;19922;-59
2022/04/03 15:36:03;;;;;;;;;;;;;;;;;;4948971;28;19922;-60
2022/04/03 15:38:28;;;;;;;;;;;;;;;;;;4937198;28;20514;-60
2022/04/03 15:40:56;;;;;;;;;;;;;;;;;;4932880;28;19929;-60
2022/04/03 17:42:33;;;;;;;;;;;;;;;;;;4925321;28;19925;-59
2022/04/03 17:45:05;;;;;;;;;;;;;;;;;;4926773;28;19918;-59
2022/04/03 17:47:33;;;;;;;;;;;;;;;;;;4930637;28;19933;-59
2022/04/03 17:49:59;;;;;;;;;;;;;;;;;;4930074;28;19927;-58
2022/04/03 17:52:27;;;;;;;;;;;;;;;;;;4928435;28;19923;-60
2022/04/03 17:54:53;;;;;;;;;;;;;;;;;;4926660;28;19922;-58
2022/04/03 17:57:20;;;;;;;;;;;;;;;;;;4939909;28;19919;-59
2022/04/03 17:59:46;;;;;;;;;;;;;;;;;;4924662;28;20536;-59
2022/04/03 18:02:12;;;;;;;;;;;;;;;;;;4929792;28;19919;-60
2022/04/03 18:04:37;;;;;;;;;;;;;;;;;;4931561;28;19922;-59
2022/04/03 18:07:07;;;;;;;;;;;;;;;;;;4927538;28;20036;-60
2022/04/03 18:09:32;;;;;;;;;;;;;;;;;;4936602;28;20879;-60
2022/04/03 18:12:04;;;;;;;;;;;;;;;;;;4967609;28;19922;-59
2022/04/03 18:14:31;;;;;;;;;;;;;;;;;;4935308;28;19998;-60
2022/04/03 18:17:00;;;;;;;;;;;;;;;;;;4932349;28;20401;-59
2022/04/03 18:19:28;;;;;;;;;;;;;;;;;;4965091;28;19922;-59
2022/04/03 18:21:53;;;;;;;;;;;;;;;;;;4931045;28;19954;-59
2022/04/03 18:24:19;;;;;;;;;;;;;;;;;;4932274;28;21909;-59
2022/04/03 18:26:44;;;;;;;;;;;;;;;;;;4960313;28;19926;-58
2022/04/03 18:29:10;;;;;;;;;;;;;;;;;;4959827;28;20409;-60
2022/04/03 18:31:35;;;;;;;;;;;;;;;;;;4926314;28;20233;-59
2022/04/03 18:34:01;;;;;;;;;;;;;;;;;;4930555;28;19953;-58
2022/04/03 18:36:29;;;;;;;;;;;;;;;;;;4935949;28;21767;-59
2022/04/03 18:38:55;;;;;;;;;;;;;;;;;;4964240;28;19929;-60
2022/04/03 18:41:25;;;;;;;;;;;;;;;;;;4961317;28;19962;-61
2022/04/03 18:43:50;;;;;;;;;;;;;;;;;;4928174;28;23129;-59